createdAt,value
2023-08-23T00:01:44.599Z,100366.28
2023-08-23T00:03:46.474Z,100364.61
2023-08-23T00:05:48.178Z,100368.75
2023-08-23T00:07:50.135Z,100362.23
2023-08-23T00:09:52.146Z,100381.44
2023-08-23T00:11:53.777Z,100386.96
2023-08-23T00:13:55.566Z,100368.17
2023-08-23T00:15:57.199Z,100357.65
2023-08-23T00:17:58.922Z,100359.81
2023-08-23T00:20:01.097Z,100363.78
2023-08-23T00:22:03.980Z,100365.17
2023-08-23T00:24:05.754Z,100368.77
2023-08-23T00:26:09.768Z,100370.24
2023-08-23T00:28:14.405Z,100373.69
2023-08-23T00:30:17.676Z,100373.15
2023-08-23T00:32:19.644Z,100375.73
2023-08-23T00:34:21.812Z,100377.36
2023-08-23T00:36:23.749Z,100384.46
2023-08-23T00:38:25.625Z,100386.73
2023-08-23T00:40:27.336Z,100389.90
2023-08-23T00:42:28.991Z,100386.33
2023-08-23T00:44:31.673Z,100389.23
2023-08-23T00:46:35.158Z,100394.31
2023-08-23T00:48:37.661Z,100394.54
2023-08-23T00:50:41.810Z,100392.27
2023-08-23T00:52:52.693Z,100384.96
2023-08-23T00:54:58.769Z,100379.48
2023-08-23T00:57:02.584Z,100374.27
2023-08-23T00:59:04.208Z,100369.60
2023-08-23T01:01:05.897Z,100367.34
2023-08-23T01:03:07.619Z,100360.09
2023-08-23T01:05:10.058Z,100355.40
2023-08-23T01:07:21.804Z,100354.27
2023-08-23T01:09:29.458Z,100351.22
2023-08-23T01:11:41.832Z,100349.77
2023-08-23T01:14:00.264Z,100351.04
2023-08-23T01:16:02.370Z,100349.52
2023-08-23T01:18:05.875Z,100350.80
2023-08-23T01:20:10.366Z,100359.07
2023-08-23T01:22:17.634Z,100357.23
2023-08-23T01:24:19.696Z,100369.42
2023-08-23T01:26:21.369Z,100369.58
2023-08-23T01:28:23.310Z,100364.95
2023-08-23T01:30:28.697Z,100363.91
2023-08-23T01:33:05.284Z,100359.84
2023-08-23T01:35:12.479Z,100352.66
2023-08-23T01:37:15.152Z,100341.93
2023-08-23T01:39:17.809Z,100339.38
2023-08-23T01:41:20.170Z,100340.58
2023-08-23T01:43:22.233Z,100348.06
2023-08-23T01:45:24.098Z,100349.63
2023-08-23T01:47:25.827Z,100352.14
2023-08-23T01:49:27.621Z,100359.78
2023-08-23T01:51:29.655Z,100348.05
2023-08-23T01:53:31.301Z,100341.86
2023-08-23T01:55:33.567Z,100346.07
2023-08-23T01:57:35.288Z,100347.95
2023-08-23T01:59:38.536Z,100341.02
2023-08-23T02:01:44.956Z,100342.67
2023-08-23T02:03:47.427Z,100351.31
2023-08-23T02:05:49.224Z,100355.31
2023-08-23T02:07:52.136Z,100355.50
2023-08-23T02:09:55.988Z,100360.77
2023-08-23T02:11:58.007Z,100358.23
2023-08-23T02:14:01.452Z,100356.55
2023-08-23T02:16:05.261Z,100355.91
2023-08-23T02:18:06.918Z,100356.62
2023-08-23T02:20:08.933Z,100354.23
2023-08-23T02:22:10.695Z,100352.73
2023-08-23T02:24:12.418Z,100362.68
2023-08-23T02:26:14.547Z,100367.42
2023-08-23T02:28:16.221Z,100358.74
2023-08-23T02:30:18.460Z,100353.23
2023-08-23T02:32:20.355Z,100354.33
2023-08-23T02:34:25.658Z,100355.48
2023-08-23T02:36:27.526Z,100359.50
2023-08-23T02:38:29.281Z,100364.25
2023-08-23T02:40:31.031Z,100350.99
2023-08-23T02:42:32.740Z,100346.30
2023-08-23T02:44:34.460Z,100343.34
2023-08-23T02:46:36.219Z,100340.73
2023-08-23T02:48:37.904Z,100340.13
2023-08-23T02:50:39.680Z,100344.05
2023-08-23T02:52:41.428Z,100349.34
2023-08-23T02:54:43.037Z,100355.61
2023-08-23T02:56:45.142Z,100364.01
2023-08-23T02:58:47.094Z,100373.70
2023-08-23T03:00:49.269Z,100374.61
2023-08-23T03:02:51.528Z,100371.67
2023-08-23T03:04:53.504Z,100375.42
2023-08-23T03:06:55.160Z,100373.25
2023-08-23T03:08:56.850Z,100365.77
2023-08-23T03:11:07.607Z,100366.19
2023-08-23T03:13:10.437Z,100375.67
2023-08-23T03:15:12.092Z,100388.67
2023-08-23T03:17:14.449Z,100392.17
2023-08-23T03:19:16.252Z,100390.98
2023-08-23T03:21:17.924Z,100384.54
2023-08-23T03:23:20.865Z,100374.09
2023-08-23T03:25:23.559Z,100375.36
2023-08-23T03:27:26.928Z,100377.13
2023-08-23T03:29:28.613Z,100375.83
2023-08-23T03:31:32.681Z,100381.95
2023-08-23T03:33:34.576Z,100381.31
2023-08-23T03:35:36.511Z,100379.84
2023-08-23T03:37:38.883Z,100379.76
2023-08-23T03:39:40.682Z,100372.27
2023-08-23T03:41:42.421Z,100386.86
2023-08-23T03:43:44.083Z,100384.02
2023-08-23T03:45:49.844Z,100382.59
2023-08-23T03:47:53.218Z,100382.20
2023-08-23T03:49:55.836Z,100381.48
2023-08-23T03:51:57.582Z,100385.03
2023-08-23T03:54:01.557Z,100381.30
2023-08-23T03:56:04.031Z,100385.41
2023-08-23T03:58:06.354Z,100381.66
2023-08-23T04:00:09.280Z,100384.69
2023-08-23T04:02:18.994Z,100380.96
2023-08-23T04:04:20.779Z,100383.26
2023-08-23T04:06:22.798Z,100385.31
2023-08-23T04:08:24.576Z,100390.36
2023-08-23T04:10:26.192Z,100389.45
2023-08-23T04:12:28.133Z,100368.85
2023-08-23T04:14:29.811Z,100390.29
2023-08-23T04:16:31.937Z,100387.64
2023-08-23T04:18:33.845Z,100382.44
2023-08-23T04:20:36.353Z,100381.97
2023-08-23T04:22:38.247Z,100380.48
2023-08-23T04:24:41.319Z,100378.89
2023-08-23T04:26:42.966Z,100374.36
2023-08-23T04:28:44.736Z,100368.94
2023-08-23T04:30:46.416Z,100371.05
2023-08-23T04:32:48.126Z,100370.44
2023-08-23T04:34:50.921Z,100369.06
2023-08-23T04:36:52.608Z,100370.84
2023-08-23T04:38:54.523Z,100368.76
2023-08-23T04:41:04.251Z,100375.37
2023-08-23T04:43:07.106Z,100380.36
2023-08-23T04:45:10.103Z,100378.27
2023-08-23T04:47:14.173Z,100385.73
2023-08-23T04:49:16.425Z,100388.73
2023-08-23T04:51:18.188Z,100389.80
2023-08-23T04:53:20.129Z,100384.00
2023-08-23T04:55:22.444Z,100381.45
2023-08-23T04:57:24.082Z,100375.74
2023-08-23T04:59:26.606Z,100370.89
2023-08-23T05:01:30.352Z,100368.32
2023-08-23T05:03:34.120Z,100373.13
2023-08-23T05:05:36.618Z,100380.75
2023-08-23T05:07:38.649Z,100387.23
2023-08-23T05:09:40.639Z,100390.91
2023-08-23T05:11:42.983Z,100391.70
2023-08-23T05:13:44.680Z,100385.34
2023-08-23T05:15:54.552Z,100389.04
2023-08-23T05:17:56.513Z,100386.64
2023-08-23T05:20:00.205Z,100383.86
2023-08-23T05:22:01.972Z,100380.05
2023-08-23T05:24:03.935Z,100379.52
2023-08-23T05:26:06.435Z,100377.71
2023-08-23T05:28:08.164Z,100370.77
2023-08-23T05:30:10.232Z,100382.33
2023-08-23T05:32:11.887Z,100387.33
2023-08-23T05:34:13.908Z,100394.06
2023-08-23T05:36:16.030Z,100396.39
2023-08-23T05:38:18.289Z,100388.68
2023-08-23T05:40:20.054Z,100387.26
2023-08-23T05:42:22.583Z,100382.83
2023-08-23T05:44:24.454Z,100381.20
2023-08-23T05:46:26.299Z,100386.67
2023-08-23T05:48:28.581Z,100383.31
2023-08-23T05:50:30.974Z,100381.91
2023-08-23T05:52:33.406Z,100380.80
2023-08-23T05:54:35.409Z,100375.86
2023-08-23T05:56:37.240Z,100377.60
2023-08-23T05:58:39.085Z,100375.84
2023-08-23T06:00:40.842Z,100373.35
2023-08-23T06:02:42.746Z,100383.13
2023-08-23T06:04:46.319Z,100384.30
2023-08-23T06:06:48.762Z,100380.09
2023-08-23T06:08:50.588Z,100379.35
2023-08-23T06:10:52.316Z,100382.61
2023-08-23T06:12:54.197Z,100377.55
2023-08-23T06:14:58.690Z,100380.14
2023-08-23T06:17:00.288Z,100379.91
2023-08-23T06:19:02.559Z,100376.86
2023-08-23T06:21:04.935Z,100381.03
2023-08-23T06:23:07.178Z,100378.46
2023-08-23T06:25:09.765Z,100373.62
2023-08-23T06:27:12.313Z,100378.64
2023-08-23T06:29:15.028Z,100377.41
2023-08-23T06:31:21.176Z,100375.13
2023-08-23T06:33:23.820Z,100370.55
2023-08-23T06:35:27.676Z,100373.28
2023-08-23T06:37:30.166Z,100369.41
2023-08-23T06:39:34.491Z,100371.40
2023-08-23T06:41:36.654Z,100371.11
2023-08-23T06:43:38.661Z,100370.45
2023-08-23T06:45:40.542Z,100369.33
2023-08-23T06:47:42.391Z,100371.23
2023-08-23T06:49:44.128Z,100373.48
2023-08-23T06:51:45.937Z,100372.33
2023-08-23T06:53:48.567Z,100368.59
2023-08-23T06:55:50.236Z,100370.30
2023-08-23T06:57:52.927Z,100373.33
2023-08-23T06:59:55.347Z,100368.25
2023-08-23T07:01:57.119Z,100366.67
2023-08-23T07:03:58.854Z,100368.21
2023-08-23T07:06:03.018Z,100366.36
2023-08-23T07:08:04.963Z,100363.85
2023-08-23T07:10:17.871Z,100365.84
2023-08-23T07:12:29.424Z,100364.89
2023-08-23T07:14:31.210Z,100368.16
2023-08-23T07:16:33.303Z,100365.70
2023-08-23T07:18:35.701Z,100362.98
2023-08-23T07:20:37.346Z,100361.61
2023-08-23T07:22:39.186Z,100359.54
2023-08-23T07:24:41.223Z,100357.06
2023-08-23T07:26:43.826Z,100362.77
2023-08-23T07:28:45.456Z,100360.08
2023-08-23T07:30:58.296Z,100355.84
2023-08-23T07:33:00.072Z,100355.66
2023-08-23T07:36:47.183Z,100357.94
2023-08-23T07:38:48.967Z,100356.56
2023-08-23T07:40:51.208Z,100358.74
2023-08-23T07:42:52.885Z,100357.88
2023-08-23T07:44:54.619Z,100359.62
2023-08-23T07:46:56.251Z,100360.83
2023-08-23T07:48:57.874Z,100360.82
2023-08-23T07:51:02.916Z,100363.38
2023-08-23T07:53:04.826Z,100358.58
2023-08-23T07:55:06.961Z,100359.97
2023-08-23T07:57:08.575Z,100364.58
2023-08-23T07:59:10.264Z,100361.41
2023-08-23T08:01:12.413Z,100359.79
2023-08-23T08:03:14.185Z,100360.48
2023-08-23T08:05:15.900Z,100361.25
2023-08-23T08:07:32.357Z,100358.46
2023-08-23T08:09:39.190Z,100357.72
2023-08-23T08:11:40.802Z,100358.41
2023-08-23T08:13:42.867Z,100356.23
2023-08-23T08:15:44.545Z,100354.64
2023-08-23T08:17:47.683Z,100355.38
2023-08-23T08:19:49.807Z,100354.68
2023-08-23T08:21:51.428Z,100357.02
2023-08-23T08:23:53.030Z,100361.23
2023-08-23T08:25:54.787Z,100351.23
2023-08-23T08:27:56.836Z,100353.82
2023-08-23T08:29:58.585Z,100353.86
2023-08-23T08:32:00.336Z,100359.38
2023-08-23T08:34:02.110Z,100354.54
2023-08-23T08:36:03.977Z,100353.77
2023-08-23T08:38:06.823Z,100355.65
2023-08-23T08:40:09.137Z,100351.27
2023-08-23T08:42:11.666Z,100354.69
2023-08-23T08:44:14.086Z,100346.29
2023-08-23T08:46:16.622Z,100348.86
2023-08-23T08:48:19.025Z,100347.64
2023-08-23T08:50:21.576Z,100352.61
2023-08-23T08:52:26.428Z,100352.07
2023-08-23T08:54:28.734Z,100348.52
2023-08-23T08:56:30.661Z,100349.16
2023-08-23T08:58:33.810Z,100342.46
2023-08-23T09:00:36.303Z,100344.01
2023-08-23T09:02:40.713Z,100344.08
2023-08-23T09:04:44.535Z,100337.02
2023-08-23T09:06:46.880Z,100336.95
2023-08-23T09:08:48.665Z,100339.70
2023-08-23T09:10:50.446Z,100335.14
2023-08-23T09:12:53.656Z,100338.99
2023-08-23T09:14:55.314Z,100335.58
2023-08-23T09:16:56.929Z,100326.97
2023-08-23T09:18:58.658Z,100334.35
2023-08-23T09:21:00.288Z,100339.32
2023-08-23T09:23:01.982Z,100334.02
2023-08-23T09:25:04.335Z,100332.83
2023-08-23T09:27:06.427Z,100339.61
2023-08-23T09:29:08.143Z,100330.81
2023-08-23T09:31:16.595Z,100337.16
2023-08-23T09:33:18.267Z,100334.09
2023-08-23T09:35:20.138Z,100331.20
2023-08-23T09:37:21.774Z,100330.13
2023-08-23T09:39:23.468Z,100325.36
2023-08-23T09:41:25.287Z,100329.91
2023-08-23T09:43:30.579Z,100330.48
2023-08-23T09:45:32.630Z,100328.98
2023-08-23T09:47:35.042Z,100329.58
2023-08-23T09:49:40.183Z,100328.16
2023-08-23T09:51:42.032Z,100331.55
2023-08-23T09:53:46.531Z,100327.36
2023-08-23T09:55:48.555Z,100330.98
2023-08-23T09:57:53.273Z,100331.50
2023-08-23T09:59:55.334Z,100328.10
2023-08-23T10:01:57.397Z,100325.67
2023-08-23T10:03:59.823Z,100324.52
2023-08-23T10:06:02.038Z,100325.91
2023-08-23T10:08:03.763Z,100322.42
2023-08-23T10:10:07.617Z,100318.47
2023-08-23T10:12:11.360Z,100315.64
2023-08-23T10:14:14.012Z,100318.73
2023-08-23T10:16:16.432Z,100315.86
2023-08-23T10:18:19.148Z,100314.23
2023-08-23T10:20:23.883Z,100312.86
2023-08-23T10:22:25.831Z,100309.19
2023-08-23T10:24:31.895Z,100304.77
2023-08-23T10:26:49.304Z,100305.20
2023-08-23T10:28:53.461Z,100303.92
2023-08-23T10:31:11.113Z,100296.02
2023-08-23T10:33:21.233Z,100296.81
2023-08-23T10:35:36.433Z,100296.48
2023-08-23T10:37:38.253Z,100291.70
2023-08-23T10:39:40.039Z,100296.59
2023-08-23T10:41:41.793Z,100298.39
2023-08-23T10:43:43.809Z,100303.52
2023-08-23T10:45:57.959Z,100296.08
2023-08-23T10:47:59.914Z,100292.65
2023-08-23T10:50:03.841Z,100295.14
2023-08-23T10:52:05.887Z,100286.11
2023-08-23T10:54:09.126Z,100289.21
2023-08-23T10:56:11.665Z,100283.86
2023-08-23T10:58:14.332Z,100277.59
2023-08-23T11:00:16.478Z,100274.25
2023-08-23T11:02:18.427Z,100273.46
2023-08-23T11:04:20.107Z,100272.58
2023-08-23T11:06:21.945Z,100274.77
2023-08-23T11:08:24.195Z,100268.92
2023-08-23T11:10:26.724Z,100272.10
2023-08-23T11:12:28.363Z,100268.98
2023-08-23T11:14:30.124Z,100271.73
2023-08-23T11:16:31.918Z,100269.84
2023-08-23T11:18:33.750Z,100267.32
2023-08-23T11:20:35.883Z,100269.73
2023-08-23T11:22:37.907Z,100268.23
2023-08-23T11:24:41.061Z,100269.00
2023-08-23T11:26:42.703Z,100263.81
2023-08-23T11:28:44.508Z,100262.09
2023-08-23T11:30:46.291Z,100259.48
2023-08-23T11:32:48.594Z,100262.54
2023-08-23T11:34:50.328Z,100262.38
2023-08-23T11:36:53.650Z,100255.20
2023-08-23T11:38:55.493Z,100250.37
2023-08-23T11:41:00.581Z,100243.44
2023-08-23T11:43:20.338Z,100248.91
2023-08-23T11:45:25.267Z,100247.27
2023-08-23T11:47:28.264Z,100255.45
2023-08-23T11:49:31.214Z,100256.16
2023-08-23T11:51:45.443Z,100251.95
2023-08-23T11:53:56.648Z,100251.39
2023-08-23T11:55:59.070Z,100246.19
2023-08-23T11:58:01.331Z,100238.77
2023-08-23T12:00:04.507Z,100232.19
2023-08-23T12:02:08.317Z,100236.96
2023-08-23T12:04:11.529Z,100240.86
2023-08-23T12:06:13.672Z,100238.55
2023-08-23T12:08:15.554Z,100236.70
2023-08-23T12:10:17.517Z,100231.86
2023-08-23T12:12:19.895Z,100230.74
2023-08-23T12:14:21.670Z,100227.57
2023-08-23T12:16:23.525Z,100234.04
2023-08-23T12:18:25.647Z,100231.39
2023-08-23T12:20:27.635Z,100229.38
2023-08-23T12:22:29.420Z,100224.42
2023-08-23T12:24:31.737Z,100228.52
2023-08-23T12:26:33.378Z,100225.44
2023-08-23T12:28:36.610Z,100227.20
2023-08-23T12:30:38.247Z,100233.52
2023-08-23T12:32:40.394Z,100225.47
2023-08-23T12:34:42.202Z,100227.10
2023-08-23T12:36:43.848Z,100224.83
2023-08-23T12:38:45.473Z,100226.59
2023-08-23T12:40:47.378Z,100226.48
2023-08-23T12:42:49.004Z,100224.30
2023-08-23T12:44:50.782Z,100224.86
2023-08-23T12:46:52.816Z,100232.38
2023-08-23T12:48:54.427Z,100232.08
2023-08-23T12:50:56.451Z,100229.86
2023-08-23T12:52:58.137Z,100225.77
2023-08-23T12:55:02.516Z,100223.73
2023-08-23T12:57:05.093Z,100224.92
2023-08-23T12:59:06.810Z,100226.86
2023-08-23T13:01:09.089Z,100229.85
2023-08-23T13:03:10.806Z,100230.45
2023-08-23T13:05:12.856Z,100220.33
2023-08-23T13:07:14.563Z,100227.39
2023-08-23T13:09:16.250Z,100226.16
2023-08-23T13:11:17.940Z,100226.05
2023-08-23T13:13:19.865Z,100223.77
2023-08-23T13:15:21.716Z,100219.86
2023-08-23T13:17:23.878Z,100214.13
2023-08-23T13:19:26.115Z,100215.47
2023-08-23T13:21:28.471Z,100213.78
2023-08-23T13:23:30.177Z,100209.55
2023-08-23T13:25:31.890Z,100210.64
2023-08-23T13:27:34.599Z,100204.66
2023-08-23T13:29:36.764Z,100204.59
2023-08-23T13:31:38.819Z,100206.55
2023-08-23T13:33:40.481Z,100203.73
2023-08-23T13:35:42.728Z,100205.75
2023-08-23T13:37:44.575Z,100211.12
2023-08-23T13:39:46.233Z,100207.45
2023-08-23T13:41:47.842Z,100209.35
2023-08-23T13:43:49.636Z,100208.90
2023-08-23T13:45:51.409Z,100203.58
2023-08-23T13:47:54.381Z,100202.37
2023-08-23T13:49:56.381Z,100198.67
2023-08-23T13:51:59.662Z,100197.36
2023-08-23T13:54:01.724Z,100195.88
2023-08-23T13:56:03.594Z,100196.81
2023-08-23T13:58:05.318Z,100196.69
2023-08-23T14:00:09.475Z,100194.88
2023-08-23T14:02:11.164Z,100191.83
2023-08-23T14:04:13.289Z,100190.78
2023-08-23T14:06:15.098Z,100190.13
2023-08-23T14:08:17.558Z,100187.73
2023-08-23T14:10:19.308Z,100191.27
2023-08-23T14:12:21.007Z,100189.06
2023-08-23T14:14:23.755Z,100187.14
2023-08-23T14:16:25.575Z,100192.70
2023-08-23T14:18:27.372Z,100194.46
2023-08-23T14:20:29.142Z,100190.42
2023-08-23T14:22:31.082Z,100190.99
2023-08-23T14:24:33.131Z,100193.10
2023-08-23T14:26:34.997Z,100191.77
2023-08-23T14:28:37.482Z,100194.52
2023-08-23T14:30:41.233Z,100196.67
2023-08-23T14:32:49.407Z,100193.39
2023-08-23T14:34:51.352Z,100192.77
2023-08-23T14:36:52.978Z,100190.84
2023-08-23T14:38:57.359Z,100191.31
2023-08-23T14:41:00.706Z,100192.94
2023-08-23T14:43:02.956Z,100194.73
2023-08-23T14:45:05.326Z,100190.38
2023-08-23T14:47:07.021Z,100195.50
2023-08-23T14:49:08.673Z,100190.12
2023-08-23T14:51:10.341Z,100190.15
2023-08-23T14:53:11.986Z,100190.31
2023-08-23T14:55:14.148Z,100189.74
2023-08-23T14:57:15.965Z,100186.10
2023-08-23T14:59:17.661Z,100187.73
2023-08-23T15:01:20.139Z,100188.18
2023-08-23T15:03:22.011Z,100186.48
2023-08-23T15:05:23.882Z,100182.45
2023-08-23T15:07:25.574Z,100181.43
2023-08-23T15:09:27.307Z,100180.34
2023-08-23T15:11:29.264Z,100175.92
2023-08-23T15:13:31.450Z,100168.82
2023-08-23T15:15:33.302Z,100178.38
2023-08-23T15:17:35.047Z,100176.33
2023-08-23T15:19:37.590Z,100174.59
2023-08-23T15:21:39.598Z,100173.45
2023-08-23T15:23:41.767Z,100172.45
2023-08-23T15:25:43.498Z,100176.48
2023-08-23T15:27:45.428Z,100177.18
2023-08-23T15:31:54.375Z,100179.73
2023-08-23T15:33:56.249Z,100178.90
2023-08-23T15:35:57.886Z,100183.17
2023-08-23T15:37:59.960Z,100183.42
2023-08-23T15:40:02.186Z,100186.29
2023-08-23T15:42:05.097Z,100186.91
2023-08-23T15:44:07.064Z,100189.73
2023-08-23T15:46:08.968Z,100190.09
2023-08-23T15:48:10.708Z,100193.42
2023-08-23T15:50:12.556Z,100191.56
2023-08-23T15:52:14.360Z,100193.91
2023-08-23T15:54:16.246Z,100195.34
2023-08-23T15:56:18.039Z,100192.46
2023-08-23T15:58:19.823Z,100195.53
2023-08-23T16:00:23.434Z,100196.85
2023-08-23T16:02:26.326Z,100191.96
2023-08-23T16:04:28.574Z,100191.36
2023-08-23T16:06:30.302Z,100186.57
2023-08-23T16:08:31.936Z,100191.36
2023-08-23T16:10:34.993Z,100194.30
2023-08-23T16:12:36.814Z,100198.55
2023-08-23T16:14:44.132Z,100198.90
2023-08-23T16:16:45.844Z,100203.48
2023-08-23T16:18:47.610Z,100203.48
2023-08-23T16:20:50.151Z,100199.75
2023-08-23T16:22:51.871Z,100206.22
2023-08-23T16:24:56.640Z,100208.20
2023-08-23T16:26:59.360Z,100205.86
2023-08-23T16:29:01.513Z,100207.94
2023-08-23T16:31:03.200Z,100209.10
2023-08-23T16:33:06.635Z,100209.83
2023-08-23T16:35:09.322Z,100211.36
2023-08-23T16:37:11.180Z,100213.30
2023-08-23T16:39:13.536Z,100216.39
2023-08-23T16:41:15.264Z,100169.77
2023-08-23T16:43:18.177Z,100218.31
2023-08-23T16:45:23.059Z,100221.74
2023-08-23T16:47:25.113Z,100223.36
2023-08-23T16:49:26.953Z,100223.23
2023-08-23T16:51:28.775Z,100223.73
2023-08-23T16:53:30.956Z,100225.73
2023-08-23T16:55:36.345Z,100229.31
2023-08-23T16:57:38.166Z,100231.65
2023-08-23T16:59:40.024Z,100223.47
2023-08-23T17:01:41.893Z,100233.98
2023-08-23T17:03:43.737Z,100237.23
2023-08-23T17:05:45.480Z,100224.95
2023-08-23T17:07:47.554Z,100241.91
2023-08-23T17:09:49.902Z,100245.17
2023-08-23T17:11:51.822Z,100245.86
2023-08-23T17:13:53.557Z,100248.45
2023-08-23T17:15:55.382Z,100249.45
2023-08-23T17:17:57.466Z,100251.87
2023-08-23T17:19:59.305Z,100249.77
2023-08-23T17:22:01.127Z,100250.65
2023-08-23T17:24:03.240Z,100252.02
2023-08-23T17:26:05.893Z,100256.73
2023-08-23T17:28:07.563Z,100260.39
2023-08-23T17:30:09.653Z,100259.70
2023-08-23T17:32:11.960Z,100264.77
2023-08-23T17:34:15.391Z,100263.41
2023-08-23T17:36:18.892Z,100265.52
2023-08-23T17:38:22.416Z,100269.29
2023-08-23T17:40:24.325Z,100265.39
2023-08-23T17:42:26.281Z,100270.08
2023-08-23T17:44:28.030Z,100274.23
2023-08-23T17:46:42.499Z,100277.45
2023-08-23T17:48:44.671Z,100276.52
2023-08-23T17:50:46.308Z,100284.23
2023-08-23T17:52:50.387Z,100283.09
2023-08-23T17:54:53.768Z,100281.20
2023-08-23T17:56:55.724Z,100282.67
2023-08-23T17:58:57.531Z,100280.58
2023-08-23T18:00:59.355Z,100286.07
2023-08-23T18:03:01.107Z,100289.34
2023-08-23T18:05:02.904Z,100290.05
2023-08-23T18:07:05.021Z,100295.16
2023-08-23T18:09:07.201Z,100295.02
2023-08-23T18:11:10.012Z,100295.61
2023-08-23T18:13:12.143Z,100297.06
2023-08-23T18:15:15.195Z,100294.42
2023-08-23T18:17:16.938Z,100296.54
2023-08-23T18:19:19.046Z,100297.64
2023-08-23T18:21:20.771Z,100296.48
2023-08-23T18:23:22.498Z,100301.89
2023-08-23T18:25:24.787Z,100296.89
2023-08-23T18:27:27.846Z,100299.45
2023-08-23T18:29:29.526Z,100305.20
2023-08-23T18:31:31.280Z,100306.95
2023-08-23T18:33:36.372Z,100297.70
2023-08-23T18:35:39.542Z,100306.07
2023-08-23T18:37:42.611Z,100310.90
2023-08-23T18:39:44.254Z,100290.30
2023-08-23T18:41:46.320Z,100314.69
2023-08-23T18:43:48.017Z,100318.07
2023-08-23T18:45:49.911Z,100320.35
2023-08-23T18:47:52.742Z,100320.23
2023-08-23T18:49:55.323Z,100318.61
2023-08-23T18:51:58.324Z,100323.83
2023-08-23T18:54:00.542Z,100327.19
2023-08-23T18:56:02.260Z,100325.83
2023-08-23T18:58:05.070Z,100333.69
2023-08-23T19:00:08.702Z,100335.00
2023-08-23T19:02:10.471Z,100337.53
2023-08-23T19:04:12.409Z,100339.75
2023-08-23T19:06:14.424Z,100342.56
2023-08-23T19:08:16.269Z,100342.98
2023-08-23T19:10:18.048Z,100339.93
2023-08-23T19:12:20.604Z,100339.17
2023-08-23T19:14:22.920Z,100338.61
2023-08-23T19:16:24.750Z,100344.20
2023-08-23T19:18:26.689Z,100348.59
2023-08-23T19:20:28.644Z,100333.91
2023-08-23T19:22:30.517Z,100341.46
2023-08-23T19:24:32.148Z,100349.08
2023-08-23T19:26:34.665Z,100338.46
2023-08-23T19:28:36.362Z,100343.95
2023-08-23T19:30:38.263Z,100349.54
2023-08-23T19:32:40.044Z,100352.73
2023-08-23T19:34:41.941Z,100354.36
2023-08-23T19:36:43.561Z,100354.79
2023-08-23T19:38:45.305Z,100354.12
2023-08-23T19:40:48.206Z,100358.87
2023-08-23T19:42:49.962Z,100360.48
2023-08-23T19:44:51.891Z,100364.84
2023-08-23T19:46:53.915Z,100364.90
2023-08-23T19:48:56.910Z,100363.55
2023-08-23T19:51:02.506Z,100360.96
2023-08-23T19:53:44.333Z,100361.50
2023-08-23T19:55:46.696Z,100365.20
2023-08-23T19:57:48.578Z,100365.66
2023-08-23T19:59:50.208Z,100356.59
2023-08-23T20:01:52.109Z,100368.21
2023-08-23T20:03:54.125Z,100370.92
2023-08-23T20:05:56.300Z,100370.64
2023-08-23T20:08:01.378Z,100370.46
2023-08-23T20:10:08.608Z,100374.02
2023-08-23T20:12:10.245Z,100372.40
2023-08-23T20:14:11.838Z,100375.70
2023-08-23T20:16:13.583Z,100375.89
2023-08-23T20:18:16.150Z,100374.34
2023-08-23T20:20:18.706Z,100376.95
2023-08-23T20:22:21.455Z,100374.46
2023-08-23T20:24:23.092Z,100369.70
2023-08-23T20:26:24.803Z,100376.61
2023-08-23T20:28:26.499Z,100377.16
2023-08-23T20:30:28.212Z,100378.80
2023-08-23T20:32:30.153Z,100380.94
2023-08-23T20:34:31.765Z,100377.14
2023-08-23T20:36:33.392Z,100376.94
2023-08-23T20:38:37.579Z,100376.16
2023-08-23T20:40:39.311Z,100377.95
2023-08-23T20:42:41.003Z,100374.17
2023-08-23T20:44:42.744Z,100376.98
2023-08-23T20:46:45.264Z,100373.45
2023-08-23T20:48:48.965Z,100376.68
2023-08-23T20:50:50.655Z,100379.37
2023-08-23T20:52:52.962Z,100380.56
2023-08-23T20:54:54.597Z,100384.33
2023-08-23T20:56:56.483Z,100385.64
2023-08-23T20:58:58.237Z,100386.95
2023-08-23T21:01:00.582Z,100385.98
2023-08-23T21:03:02.537Z,100383.65
2023-08-23T21:05:05.512Z,100384.94
2023-08-23T21:07:07.621Z,100383.38
2023-08-23T21:09:09.250Z,100380.23
2023-08-23T21:11:10.881Z,100384.17
2023-08-23T21:13:13.604Z,100385.58
2023-08-23T21:15:15.242Z,100386.23
2023-08-23T21:17:17.626Z,100389.83
2023-08-23T21:19:19.249Z,100388.21
2023-08-23T21:21:20.933Z,100388.68
2023-08-23T21:23:22.994Z,100390.48
2023-08-23T21:25:24.597Z,100388.08
2023-08-23T21:27:26.218Z,100389.59
2023-08-23T21:29:28.391Z,100385.42
2023-08-23T21:31:30.563Z,100390.02
2023-08-23T21:33:32.432Z,100387.45
2023-08-23T21:35:36.316Z,100391.18
2023-08-23T21:37:37.979Z,100387.70
2023-08-23T21:39:39.595Z,100389.20
2023-08-23T21:41:41.360Z,100390.34
2023-08-23T21:43:42.981Z,100388.55
2023-08-23T21:45:44.584Z,100385.08
2023-08-23T21:47:46.544Z,100388.45
2023-08-23T21:49:48.345Z,100386.48
2023-08-23T21:51:49.993Z,100389.98
2023-08-23T21:53:51.657Z,100392.90
2023-08-23T21:55:55.385Z,100393.26
2023-08-23T21:57:57.507Z,100394.11
2023-08-23T21:59:59.604Z,100392.91
2023-08-23T22:02:01.303Z,100393.06
2023-08-23T22:04:03.918Z,100391.63
2023-08-23T22:06:11.504Z,100389.49
2023-08-23T22:08:13.086Z,100390.38
2023-08-23T22:10:15.246Z,100394.33
2023-08-23T22:12:16.879Z,100358.40
2023-08-23T22:14:18.454Z,100392.02
2023-08-23T22:16:21.242Z,100392.89
2023-08-23T22:18:28.557Z,100392.36
2023-08-23T22:20:30.170Z,100391.91
2023-08-23T22:22:32.088Z,100389.91
2023-08-23T22:24:33.704Z,100391.01
2023-08-23T22:26:35.594Z,100392.79
2023-08-23T22:28:37.473Z,100384.81
2023-08-23T22:30:39.139Z,100389.44
2023-08-23T22:32:40.820Z,100395.30
2023-08-23T22:34:42.559Z,100393.14
2023-08-23T22:36:44.214Z,100397.41
2023-08-23T22:38:45.900Z,100397.31
2023-08-23T22:40:51.062Z,100396.07
2023-08-23T22:42:53.896Z,100398.45
2023-08-23T22:44:55.537Z,100397.05
2023-08-23T22:46:57.213Z,100395.77
2023-08-23T22:48:58.838Z,100392.71
2023-08-23T22:51:01.325Z,100398.61
2023-08-23T22:53:03.364Z,100399.95
2023-08-23T22:55:05.872Z,100397.70
2023-08-23T22:57:07.675Z,100398.43
2023-08-23T22:59:09.668Z,100400.45
2023-08-23T23:01:11.358Z,100402.66
2023-08-23T23:03:13.513Z,100402.32
2023-08-23T23:05:15.736Z,100398.71
2023-08-23T23:07:18.876Z,100397.38
2023-08-23T23:09:21.362Z,100399.95
2023-08-23T23:11:22.993Z,100398.92
2023-08-23T23:13:24.711Z,100400.45
2023-08-23T23:15:26.510Z,100403.24
2023-08-23T23:17:28.483Z,100399.13
2023-08-23T23:19:30.768Z,100390.47
2023-08-23T23:21:32.440Z,100403.52
2023-08-23T23:23:34.214Z,100407.14
2023-08-23T23:25:36.602Z,100399.95